Terminal Aerodrome Forecast
Issued by NWS

Home | Current Version | Previous Version | Text Only | Print | Product List | Glossary On
Versions: 1 2 3 4 5 6 7 8 9 10 11 12 13 14 15 16 17 18 19 20 21 22 23
000
FTUS43 KDLH 260300 AAC
TAFHIB
TAF AMD
KHIB 260336Z 2604/2624 31006KT P6SM SCT028 OVC035
      TEMPO 2604/2606 30010G18KT -SHRA
     FM260700 33006KT P6SM SCT028 OVC035
      TEMPO 2607/2610 BKN028
     FM261500 30009G15KT P6SM SCT025
     FM261900 29013G20KT P6SM BKN045=

USA.gov is the U.S. government's official web portal to all federal, state and local government web resources and services.